Check out our new PWSWeather beta!
PWSweather.com
Personal Weather Stations
Station Observations
ROSEGARDEN
Rose Garden, Brentwood, CA 94513

Rose GardenBrentwood, CA 94513

Lat: 37.967503, Lon: -121.721004

Elevation: 89

Station Type: Davis Vantage Vue

High Low Average
Temperature 73.5°F23.1°C 47.9°F8.8°C 60.7°F15.9°C
Dew Point 47.0°F8.3°C 37.0°F2.8°C 41.8°F5.4°C
Winds 6.3 mph 10.1 kmh Calm Calm 2.0 mph WSW3.2 kmh WSW
Wind Gusts 16.0 mph25.7 kmh -- 5.0 mph8.0 kmh
Humidity 79% 32% 52%
Pressure 29.95 in1014.2 mb 29.89 in1012.2 mb -
Precipitation 0.00 in0.0 mm - -
Hour Temp Dew Point Humidity Winds Wind Gusts Pressure Precip Precip Rate Daily Precip Total
12:00 AM 53.7°F12.1°C 42.0°F5.6°C 66% 1.2 mph WNW1.9 kmh WNW 3.0 mph4.8 kmh 29.92 in1013.2 mb 0.00 in0.0 mm 0.00 in0.0 mm 0.00 in0.0 mm
12:10 AM 53.7°F12.1°C 42.0°F5.6°C 65% 0.9 mph W1.4 kmh W 2.0 mph3.2 kmh 29.91 in1012.9 mb 0.00 in0.0 mm 0.00 in0.0 mm 0.00 in0.0 mm
12:20 AM 53.8°F12.1°C 42.0°F5.6°C 65% 1.0 mph W1.6 kmh W 3.0 mph4.8 kmh 29.91 in1012.9 mb 0.00 in0.0 mm 0.00 in0.0 mm 0.00 in0.0 mm
12:30 AM 53.7°F12.1°C 42.0°F5.6°C 66% 0.1 mph W0.2 kmh W 2.0 mph3.2 kmh 29.91 in1012.9 mb 0.00 in0.0 mm 0.00 in0.0 mm 0.00 in0.0 mm
12:40 AM 53.7°F12.1°C 42.0°F5.6°C 66% 0.5 mph W0.8 kmh W 2.0 mph3.2 kmh 29.92 in1013.2 mb 0.00 in0.0 mm 0.00 in0.0 mm 0.00 in0.0 mm
12:50 AM 53.3°F11.8°C 43.0°F6.1°C 67% 0.6 mph W1.0 kmh W 2.0 mph3.2 kmh 29.92 in1013.2 mb 0.00 in0.0 mm 0.00 in0.0 mm 0.00 in0.0 mm
01:00 AM 53.1°F11.7°C 42.0°F5.6°C 67% 0.9 mph W1.4 kmh W 2.0 mph3.2 kmh 29.92 in1013.2 mb 0.00 in0.0 mm 0.00 in0.0 mm 0.00 in0.0 mm
01:10 AM 52.7°F11.5°C 42.0°F5.6°C 68% 1.0 mph WSW1.6 kmh WSW 2.0 mph3.2 kmh 29.92 in1013.2 mb 0.00 in0.0 mm 0.00 in0.0 mm 0.00 in0.0 mm
01:20 AM 52.6°F11.4°C 42.0°F5.6°C 68% 1.6 mph W2.6 kmh W 3.0 mph4.8 kmh 29.92 in1013.2 mb 0.00 in0.0 mm 0.00 in0.0 mm 0.00 in0.0 mm
01:30 AM 52.3°F11.3°C 42.0°F5.6°C 69% 0.8 mph W1.3 kmh W 2.0 mph3.2 kmh 29.92 in1013.2 mb 0.00 in0.0 mm 0.00 in0.0 mm 0.00 in0.0 mm
01:40 AM 52.0°F11.1°C 42.0°F5.6°C 69% 0.1 mph W0.2 kmh W 1.0 mph1.6 kmh 29.91 in1012.9 mb 0.00 in0.0 mm 0.00 in0.0 mm 0.00 in0.0 mm
01:50 AM 52.0°F11.1°C 42.0°F5.6°C 69% 0.1 mph W0.2 kmh W 2.0 mph3.2 kmh 29.91 in1012.9 mb 0.00 in0.0 mm 0.00 in0.0 mm 0.00 in0.0 mm
02:00 AM 51.9°F11.1°C 42.0°F5.6°C 70% 0.5 mph WNW0.8 kmh WNW 2.0 mph3.2 kmh 29.91 in1012.9 mb 0.00 in0.0 mm 0.00 in0.0 mm 0.00 in0.0 mm
02:10 AM 51.8°F11.0°C 42.0°F5.6°C 70% 0.5 mph WNW0.8 kmh WNW 2.0 mph3.2 kmh 29.91 in1012.9 mb 0.00 in0.0 mm 0.00 in0.0 mm 0.00 in0.0 mm
02:20 AM 51.8°F11.0°C 43.0°F6.1°C 71% 0.3 mph WNW0.5 kmh WNW 2.0 mph3.2 kmh 29.91 in1012.9 mb 0.00 in0.0 mm 0.00 in0.0 mm 0.00 in0.0 mm
02:30 AM 51.4°F10.8°C 42.0°F5.6°C 71% 0.1 mph WNW0.2 kmh WNW 2.0 mph3.2 kmh 29.91 in1012.9 mb 0.00 in0.0 mm 0.00 in0.0 mm 0.00 in0.0 mm
02:40 AM 51.4°F10.8°C 43.0°F6.1°C 72% 0.1 mph WNW0.2 kmh WNW 1.0 mph1.6 kmh 29.91 in1012.9 mb 0.00 in0.0 mm 0.00 in0.0 mm 0.00 in0.0 mm
02:50 AM 51.3°F10.7°C 43.0°F6.1°C 73% Calm Calm 1.0 mph1.6 kmh 29.90 in1012.5 mb 0.00 in0.0 mm 0.00 in0.0 mm 0.00 in0.0 mm
03:00 AM 51.1°F10.6°C 43.0°F6.1°C 75% Calm Calm -- 29.90 in1012.5 mb 0.00 in0.0 mm 0.00 in0.0 mm 0.00 in0.0 mm
03:10 AM 51.3°F10.7°C 44.0°F6.7°C 75% 0.3 mph W0.5 kmh W 3.0 mph4.8 kmh 29.90 in1012.5 mb 0.00 in0.0 mm 0.00 in0.0 mm 0.00 in0.0 mm
03:20 AM 51.0°F10.6°C 43.0°F6.1°C 75% Calm Calm 1.0 mph1.6 kmh 29.91 in1012.9 mb 0.00 in0.0 mm 0.00 in0.0 mm 0.00 in0.0 mm
03:30 AM 50.8°F10.4°C 43.0°F6.1°C 75% 0.9 mph W1.4 kmh W 2.0 mph3.2 kmh 29.90 in1012.5 mb 0.00 in0.0 mm 0.00 in0.0 mm 0.00 in0.0 mm
03:40 AM 51.1°F10.6°C 43.0°F6.1°C 73% 0.8 mph W1.3 kmh W 2.0 mph3.2 kmh 29.91 in1012.9 mb 0.00 in0.0 mm 0.00 in0.0 mm 0.00 in0.0 mm
03:50 AM 50.6°F10.3°C 43.0°F6.1°C 74% 0.1 mph W0.2 kmh W 1.0 mph1.6 kmh 29.91 in1012.9 mb 0.00 in0.0 mm 0.00 in0.0 mm 0.00 in0.0 mm
04:00 AM 49.8°F9.9°C 42.0°F5.6°C 74% Calm Calm -- 29.91 in1012.9 mb 0.00 in0.0 mm 0.00 in0.0 mm 0.00 in0.0 mm
04:10 AM 49.0°F9.4°C 42.0°F5.6°C 76% Calm Calm -- 29.91 in1012.9 mb 0.00 in0.0 mm 0.00 in0.0 mm 0.00 in0.0 mm
04:20 AM 48.5°F9.2°C 42.0°F5.6°C 77% Calm Calm -- 29.91 in1012.9 mb 0.00 in0.0 mm 0.00 in0.0 mm 0.00 in0.0 mm
04:30 AM 48.4°F9.1°C 42.0°F5.6°C 78% Calm Calm -- 29.91 in1012.9 mb 0.00 in0.0 mm 0.00 in0.0 mm 0.00 in0.0 mm
04:40 AM 49.0°F9.4°C 42.0°F5.6°C 77% 0.4 mph W0.6 kmh W 2.0 mph3.2 kmh 29.91 in1012.9 mb 0.00 in0.0 mm 0.00 in0.0 mm 0.00 in0.0 mm
04:50 AM 49.5°F9.7°C 42.0°F5.6°C 76% 0.7 mph W1.1 kmh W 2.0 mph3.2 kmh 29.91 in1012.9 mb 0.00 in0.0 mm 0.00 in0.0 mm 0.00 in0.0 mm
05:00 AM 49.5°F9.7°C 42.0°F5.6°C 75% 0.9 mph WSW1.4 kmh WSW 2.0 mph3.2 kmh 29.91 in1012.9 mb 0.00 in0.0 mm 0.00 in0.0 mm 0.00 in0.0 mm
05:10 AM 49.5°F9.7°C 42.0°F5.6°C 75% 0.2 mph WSW0.3 kmh WSW 1.0 mph1.6 kmh 29.91 in1012.9 mb 0.00 in0.0 mm 0.00 in0.0 mm 0.00 in0.0 mm
05:20 AM 49.2°F9.6°C 42.0°F5.6°C 76% Calm Calm -- 29.91 in1012.9 mb 0.00 in0.0 mm 0.00 in0.0 mm 0.00 in0.0 mm
05:30 AM 48.6°F9.2°C 42.0°F5.6°C 77% Calm Calm -- 29.92 in1013.2 mb 0.00 in0.0 mm 0.00 in0.0 mm 0.00 in0.0 mm
05:40 AM 48.6°F9.2°C 41.0°F5.0°C 76% 0.1 mph WSW0.2 kmh WSW 1.0 mph1.6 kmh 29.92 in1013.2 mb 0.00 in0.0 mm 0.00 in0.0 mm 0.00 in0.0 mm
05:50 AM 48.4°F9.1°C 41.0°F5.0°C 75% 0.4 mph WSW0.6 kmh WSW 2.0 mph3.2 kmh 29.92 in1013.2 mb 0.00 in0.0 mm 0.00 in0.0 mm 0.00 in0.0 mm
06:00 AM 48.1°F8.9°C 41.0°F5.0°C 75% 0.8 mph WSW1.3 kmh WSW 1.0 mph1.6 kmh 29.92 in1013.2 mb 0.00 in0.0 mm 0.00 in0.0 mm 0.00 in0.0 mm
06:10 AM 47.9°F8.8°C 40.0°F4.4°C 75% 0.3 mph WSW0.5 kmh WSW 1.0 mph1.6 kmh 29.93 in1013.5 mb 0.00 in0.0 mm 0.00 in0.0 mm 0.00 in0.0 mm
06:20 AM 48.0°F8.9°C 41.0°F5.0°C 76% Calm Calm -- 29.93 in1013.5 mb 0.00 in0.0 mm 0.00 in0.0 mm 0.00 in0.0 mm
06:30 AM 48.4°F9.1°C 41.0°F5.0°C 76% 0.3 mph WSW0.5 kmh WSW 2.0 mph3.2 kmh 29.93 in1013.5 mb 0.00 in0.0 mm 0.00 in0.0 mm 0.00 in0.0 mm
06:40 AM 49.4°F9.7°C 42.0°F5.6°C 76% 0.4 mph W0.6 kmh W 2.0 mph3.2 kmh 29.93 in1013.5 mb 0.00 in0.0 mm 0.00 in0.0 mm 0.00 in0.0 mm
06:50 AM 50.4°F10.2°C 43.0°F6.1°C 76% 0.4 mph WSW0.6 kmh WSW 1.0 mph1.6 kmh 29.93 in1013.5 mb 0.00 in0.0 mm 0.00 in0.0 mm 0.00 in0.0 mm
07:00 AM 51.4°F10.8°C 44.0°F6.7°C 77% 1.1 mph NW1.8 kmh NW 3.0 mph4.8 kmh 29.93 in1013.5 mb 0.00 in0.0 mm 0.00 in0.0 mm 0.00 in0.0 mm
07:10 AM 52.8°F11.6°C 46.0°F7.8°C 79% 1.6 mph N2.6 kmh N 4.0 mph6.4 kmh 29.94 in1013.9 mb 0.00 in0.0 mm 0.00 in0.0 mm 0.00 in0.0 mm
07:20 AM 54.0°F12.2°C 47.0°F8.3°C 78% 1.0 mph W1.6 kmh W 2.0 mph3.2 kmh 29.94 in1013.9 mb 0.00 in0.0 mm 0.00 in0.0 mm 0.00 in0.0 mm
07:30 AM 55.7°F13.2°C 46.0°F7.8°C 70% 1.6 mph W2.6 kmh W 8.0 mph12.9 kmh 29.94 in1013.9 mb 0.00 in0.0 mm 0.00 in0.0 mm 0.00 in0.0 mm
07:40 AM 57.3°F14.1°C 46.0°F7.8°C 65% 1.3 mph NNW2.1 kmh NNW 3.0 mph4.8 kmh 29.94 in1013.9 mb 0.00 in0.0 mm 0.00 in0.0 mm 0.00 in0.0 mm
07:50 AM 58.0°F14.4°C 45.0°F7.2°C 62% 1.5 mph WSW2.4 kmh WSW 4.0 mph6.4 kmh 29.95 in1014.2 mb 0.00 in0.0 mm 0.00 in0.0 mm 0.00 in0.0 mm
08:00 AM 58.4°F14.7°C 45.0°F7.2°C 61% 1.7 mph NW2.7 kmh NW 4.0 mph6.4 kmh 29.94 in1013.9 mb 0.00 in0.0 mm 0.00 in0.0 mm 0.00 in0.0 mm
08:10 AM 58.9°F14.9°C 46.0°F7.8°C 62% 2.3 mph W3.7 kmh W 7.0 mph11.3 kmh 29.94 in1013.9 mb 0.00 in0.0 mm 0.00 in0.0 mm 0.00 in0.0 mm
08:20 AM 59.1°F15.1°C 45.0°F7.2°C 59% 3.0 mph N4.8 kmh N 6.0 mph9.7 kmh 29.94 in1013.9 mb 0.00 in0.0 mm 0.00 in0.0 mm 0.00 in0.0 mm
08:30 AM 59.8°F15.4°C 45.0°F7.2°C 58% 2.5 mph NW4.0 kmh NW 7.0 mph11.3 kmh 29.95 in1014.2 mb 0.00 in0.0 mm 0.00 in0.0 mm 0.00 in0.0 mm
08:40 AM 59.9°F15.5°C 44.0°F6.7°C 57% 4.0 mph W6.4 kmh W 9.0 mph14.5 kmh 29.95 in1014.2 mb 0.00 in0.0 mm 0.00 in0.0 mm 0.00 in0.0 mm
08:50 AM 60.4°F15.8°C 44.0°F6.7°C 55% 3.0 mph NNW4.8 kmh NNW 8.0 mph12.9 kmh 29.95 in1014.2 mb 0.00 in0.0 mm 0.00 in0.0 mm 0.00 in0.0 mm
09:00 AM 60.6°F15.9°C 45.0°F7.2°C 56% 4.1 mph NNE6.6 kmh NNE 10.0 mph16.1 kmh 29.95 in1014.2 mb 0.00 in0.0 mm 0.00 in0.0 mm 0.00 in0.0 mm
09:10 AM 61.4°F16.3°C 44.0°F6.7°C 53% 3.5 mph N5.6 kmh N 8.0 mph12.9 kmh 29.95 in1014.2 mb 0.00 in0.0 mm 0.00 in0.0 mm 0.00 in0.0 mm
09:20 AM 61.5°F16.4°C 44.0°F6.7°C 53% 5.4 mph NW8.7 kmh NW 11.0 mph17.7 kmh 29.95 in1014.2 mb 0.00 in0.0 mm 0.00 in0.0 mm 0.00 in0.0 mm
09:30 AM 61.6°F16.4°C 44.0°F6.7°C 53% 6.3 mph N10.1 kmh N 14.0 mph22.5 kmh 29.95 in1014.2 mb 0.00 in0.0 mm 0.00 in0.0 mm 0.00 in0.0 mm
09:40 AM 61.9°F16.6°C 43.0°F6.1°C 51% 5.8 mph NE9.3 kmh NE 16.0 mph25.7 kmh 29.95 in1014.2 mb 0.00 in0.0 mm 0.00 in0.0 mm 0.00 in0.0 mm
09:50 AM 63.1°F17.3°C 45.0°F7.2°C 52% 3.6 mph NW5.8 kmh NW 8.0 mph12.9 kmh 29.95 in1014.2 mb 0.00 in0.0 mm 0.00 in0.0 mm 0.00 in0.0 mm
10:00 AM 62.9°F17.2°C 43.0°F6.1°C 49% 5.7 mph N9.2 kmh N 16.0 mph25.7 kmh 29.95 in1014.2 mb 0.00 in0.0 mm 0.00 in0.0 mm 0.00 in0.0 mm
10:10 AM 63.4°F17.4°C 44.0°F6.7°C 50% 4.3 mph NW6.9 kmh NW 10.0 mph16.1 kmh 29.95 in1014.2 mb 0.00 in0.0 mm 0.00 in0.0 mm 0.00 in0.0 mm
10:20 AM 64.2°F17.9°C 44.0°F6.7°C 49% 3.9 mph NNW6.3 kmh NNW 11.0 mph17.7 kmh 29.95 in1014.2 mb 0.00 in0.0 mm 0.00 in0.0 mm 0.00 in0.0 mm
10:30 AM 64.4°F18.0°C 45.0°F7.2°C 49% 3.4 mph WNW5.5 kmh WNW 9.0 mph14.5 kmh 29.95 in1014.2 mb 0.00 in0.0 mm 0.00 in0.0 mm 0.00 in0.0 mm
10:40 AM 64.4°F18.0°C 45.0°F7.2°C 49% 3.9 mph NNW6.3 kmh NNW 9.0 mph14.5 kmh 29.95 in1014.2 mb 0.00 in0.0 mm 0.00 in0.0 mm 0.00 in0.0 mm
10:50 AM 64.9°F18.3°C 45.0°F7.2°C 48% 3.9 mph NW6.3 kmh NW 8.0 mph12.9 kmh 29.95 in1014.2 mb 0.00 in0.0 mm 0.00 in0.0 mm 0.00 in0.0 mm
11:00 AM 65.5°F18.6°C 44.0°F6.7°C 46% 4.5 mph NNE7.2 kmh NNE 10.0 mph16.1 kmh 29.95 in1014.2 mb 0.00 in0.0 mm 0.00 in0.0 mm 0.00 in0.0 mm
11:10 AM 65.5°F18.6°C 43.0°F6.1°C 45% 4.7 mph W7.6 kmh W 12.0 mph19.3 kmh 29.95 in1014.2 mb 0.00 in0.0 mm 0.00 in0.0 mm 0.00 in0.0 mm
11:20 AM 66.2°F19.0°C 43.0°F6.1°C 44% 4.4 mph E7.1 kmh E 11.0 mph17.7 kmh 29.94 in1013.9 mb 0.00 in0.0 mm 0.00 in0.0 mm 0.00 in0.0 mm
11:30 AM 66.7°F19.3°C 43.0°F6.1°C 43% 3.4 mph SW5.5 kmh SW 11.0 mph17.7 kmh 29.94 in1013.9 mb 0.00 in0.0 mm 0.00 in0.0 mm 0.00 in0.0 mm
11:40 AM 67.2°F19.6°C 44.0°F6.7°C 43% 3.9 mph N6.3 kmh N 10.0 mph16.1 kmh 29.94 in1013.9 mb 0.00 in0.0 mm 0.00 in0.0 mm 0.00 in0.0 mm
11:50 AM 68.0°F20.0°C 44.0°F6.7°C 42% 3.1 mph NNW5.0 kmh NNW 8.0 mph12.9 kmh 29.94 in1013.9 mb 0.00 in0.0 mm 0.00 in0.0 mm 0.00 in0.0 mm
12:00 PM 68.0°F20.0°C 43.0°F6.1°C 41% 3.1 mph W5.0 kmh W 9.0 mph14.5 kmh 29.94 in1013.9 mb 0.00 in0.0 mm 0.00 in0.0 mm 0.00 in0.0 mm
12:10 PM 68.6°F20.3°C 43.0°F6.1°C 40% 4.0 mph N6.4 kmh N 10.0 mph16.1 kmh 29.93 in1013.5 mb 0.00 in0.0 mm 0.00 in0.0 mm 0.00 in0.0 mm
12:20 PM 67.7°F19.8°C 43.0°F6.1°C 41% 4.8 mph WSW7.7 kmh WSW 10.0 mph16.1 kmh 29.93 in1013.5 mb 0.00 in0.0 mm 0.00 in0.0 mm 0.00 in0.0 mm
12:30 PM 68.3°F20.2°C 44.0°F6.7°C 41% 4.6 mph W7.4 kmh W 9.0 mph14.5 kmh 29.93 in1013.5 mb 0.00 in0.0 mm 0.00 in0.0 mm 0.00 in0.0 mm
12:40 PM 69.0°F20.6°C 43.0°F6.1°C 39% 3.3 mph NNE5.3 kmh NNE 11.0 mph17.7 kmh 29.93 in1013.5 mb 0.00 in0.0 mm 0.00 in0.0 mm 0.00 in0.0 mm
12:50 PM 69.0°F20.6°C 43.0°F6.1°C 39% 3.0 mph NNE4.8 kmh NNE 9.0 mph14.5 kmh 29.92 in1013.2 mb 0.00 in0.0 mm 0.00 in0.0 mm 0.00 in0.0 mm
01:00 PM 70.0°F21.1°C 42.0°F5.6°C 37% 3.5 mph WNW5.6 kmh WNW 10.0 mph16.1 kmh 29.92 in1013.2 mb 0.00 in0.0 mm 0.00 in0.0 mm 0.00 in0.0 mm
01:10 PM 69.8°F21.0°C 44.0°F6.7°C 39% 4.0 mph W6.4 kmh W 9.0 mph14.5 kmh 29.92 in1013.2 mb 0.00 in0.0 mm 0.00 in0.0 mm 0.00 in0.0 mm
01:20 PM 70.0°F21.1°C 42.0°F5.6°C 37% 3.0 mph W4.8 kmh W 6.0 mph9.7 kmh 29.92 in1013.2 mb 0.00 in0.0 mm 0.00 in0.0 mm 0.00 in0.0 mm
01:30 PM 70.2°F21.2°C 42.0°F5.6°C 36% 3.8 mph NW6.1 kmh NW 9.0 mph14.5 kmh 29.91 in1012.9 mb 0.00 in0.0 mm 0.00 in0.0 mm 0.00 in0.0 mm
01:40 PM 70.3°F21.3°C 42.0°F5.6°C 36% 4.2 mph NNE6.8 kmh NNE 11.0 mph17.7 kmh 29.91 in1012.9 mb 0.00 in0.0 mm 0.00 in0.0 mm 0.00 in0.0 mm
01:50 PM 70.9°F21.6°C 42.0°F5.6°C 35% 3.4 mph WNW5.5 kmh WNW 9.0 mph14.5 kmh 29.91 in1012.9 mb 0.00 in0.0 mm 0.00 in0.0 mm 0.00 in0.0 mm
02:00 PM 71.5°F21.9°C 42.0°F5.6°C 35% 2.8 mph NW4.5 kmh NW 7.0 mph11.3 kmh 29.91 in1012.9 mb 0.00 in0.0 mm 0.00 in0.0 mm 0.00 in0.0 mm
02:10 PM 71.4°F21.9°C 41.0°F5.0°C 33% 3.0 mph S4.8 kmh S 7.0 mph11.3 kmh 29.91 in1012.9 mb 0.00 in0.0 mm 0.00 in0.0 mm 0.00 in0.0 mm
02:20 PM 71.3°F21.8°C 41.0°F5.0°C 34% 3.0 mph W4.8 kmh W 10.0 mph16.1 kmh 29.91 in1012.9 mb 0.00 in0.0 mm 0.00 in0.0 mm 0.00 in0.0 mm
02:30 PM 71.8°F22.1°C 42.0°F5.6°C 34% 1.8 mph N2.9 kmh N 8.0 mph12.9 kmh 29.91 in1012.9 mb 0.00 in0.0 mm 0.00 in0.0 mm 0.00 in0.0 mm
02:40 PM 72.7°F22.6°C 41.0°F5.0°C 32% 1.6 mph N2.6 kmh N 6.0 mph9.7 kmh 29.90 in1012.5 mb 0.00 in0.0 mm 0.00 in0.0 mm 0.00 in0.0 mm
02:50 PM 72.7°F22.6°C 42.0°F5.6°C 33% 2.8 mph WSW4.5 kmh WSW 7.0 mph11.3 kmh 29.90 in1012.5 mb 0.00 in0.0 mm 0.00 in0.0 mm 0.00 in0.0 mm
03:00 PM 73.1°F22.8°C 41.0°F5.0°C 32% 2.7 mph NE4.3 kmh NE 11.0 mph17.7 kmh 29.90 in1012.5 mb 0.00 in0.0 mm 0.00 in0.0 mm 0.00 in0.0 mm
03:10 PM 72.5°F22.5°C 42.0°F5.6°C 33% 3.3 mph NW5.3 kmh NW 7.0 mph11.3 kmh 29.90 in1012.5 mb 0.00 in0.0 mm 0.00 in0.0 mm 0.00 in0.0 mm
03:20 PM 72.3°F22.4°C 42.0°F5.6°C 33% 2.3 mph NW3.7 kmh NW 6.0 mph9.7 kmh 29.90 in1012.5 mb 0.00 in0.0 mm 0.00 in0.0 mm 0.00 in0.0 mm
03:30 PM 72.8°F22.7°C 42.0°F5.6°C 33% 1.6 mph WSW2.6 kmh WSW 5.0 mph8.0 kmh 29.89 in1012.2 mb 0.00 in0.0 mm 0.00 in0.0 mm 0.00 in0.0 mm
03:40 PM 73.0°F22.8°C 42.0°F5.6°C 33% 2.6 mph WSW4.2 kmh WSW 8.0 mph12.9 kmh 29.89 in1012.2 mb 0.00 in0.0 mm 0.00 in0.0 mm 0.00 in0.0 mm
03:50 PM 73.1°F22.8°C 41.0°F5.0°C 32% 3.0 mph NW4.8 kmh NW 9.0 mph14.5 kmh 29.89 in1012.2 mb 0.00 in0.0 mm 0.00 in0.0 mm 0.00 in0.0 mm
04:00 PM 73.0°F22.8°C 41.0°F5.0°C 32% 1.8 mph SW2.9 kmh SW 6.0 mph9.7 kmh 29.89 in1012.2 mb 0.00 in0.0 mm 0.00 in0.0 mm 0.00 in0.0 mm
04:10 PM 73.4°F23.0°C 42.0°F5.6°C 32% 1.8 mph NW2.9 kmh NW 6.0 mph9.7 kmh 29.89 in1012.2 mb 0.00 in0.0 mm 0.00 in0.0 mm 0.00 in0.0 mm
04:20 PM 72.9°F22.7°C 41.0°F5.0°C 32% 1.4 mph NNE2.3 kmh NNE 5.0 mph8.0 kmh 29.89 in1012.2 mb 0.00 in0.0 mm 0.00 in0.0 mm 0.00 in0.0 mm
04:30 PM 73.5°F23.1°C 42.0°F5.6°C 32% 1.4 mph NNE2.3 kmh NNE 5.0 mph8.0 kmh 29.90 in1012.5 mb 0.00 in0.0 mm 0.00 in0.0 mm 0.00 in0.0 mm
04:40 PM 73.2°F22.9°C 42.0°F5.6°C 32% 1.5 mph W2.4 kmh W 4.0 mph6.4 kmh 29.90 in1012.5 mb 0.00 in0.0 mm 0.00 in0.0 mm 0.00 in0.0 mm
04:50 PM 72.9°F22.7°C 41.0°F5.0°C 32% 1.5 mph WNW2.4 kmh WNW 4.0 mph6.4 kmh 29.90 in1012.5 mb 0.00 in0.0 mm 0.00 in0.0 mm 0.00 in0.0 mm
05:00 PM 72.2°F22.3°C 43.0°F6.1°C 35% 2.8 mph N4.5 kmh N 9.0 mph14.5 kmh 29.90 in1012.5 mb 0.00 in0.0 mm 0.00 in0.0 mm 0.00 in0.0 mm
05:10 PM 71.7°F22.1°C 44.0°F6.7°C 37% 2.9 mph NW4.7 kmh NW 8.0 mph12.9 kmh 29.90 in1012.5 mb 0.00 in0.0 mm 0.00 in0.0 mm 0.00 in0.0 mm
05:20 PM 71.0°F21.7°C 44.0°F6.7°C 38% 3.1 mph N5.0 kmh N 7.0 mph11.3 kmh 29.90 in1012.5 mb 0.00 in0.0 mm 0.00 in0.0 mm 0.00 in0.0 mm
05:30 PM 70.4°F21.3°C 43.0°F6.1°C 38% 2.5 mph N4.0 kmh N 7.0 mph11.3 kmh 29.90 in1012.5 mb 0.00 in0.0 mm 0.00 in0.0 mm 0.00 in0.0 mm
05:40 PM 69.4°F20.8°C 43.0°F6.1°C 39% 3.0 mph NW4.8 kmh NW 8.0 mph12.9 kmh 29.91 in1012.9 mb 0.00 in0.0 mm 0.00 in0.0 mm 0.00 in0.0 mm
05:50 PM 68.3°F20.2°C 43.0°F6.1°C 40% 3.4 mph WNW5.5 kmh WNW 9.0 mph14.5 kmh 29.91 in1012.9 mb 0.00 in0.0 mm 0.00 in0.0 mm 0.00 in0.0 mm
06:00 PM 67.6°F19.8°C 43.0°F6.1°C 41% 2.9 mph NNW4.7 kmh NNW 7.0 mph11.3 kmh 29.91 in1012.9 mb 0.00 in0.0 mm 0.00 in0.0 mm 0.00 in0.0 mm
06:10 PM 66.8°F19.3°C 43.0°F6.1°C 43% 3.2 mph W5.1 kmh W 8.0 mph12.9 kmh 29.91 in1012.9 mb 0.00 in0.0 mm 0.00 in0.0 mm 0.00 in0.0 mm
06:20 PM 66.0°F18.9°C 42.0°F5.6°C 42% 3.6 mph WNW5.8 kmh WNW 9.0 mph14.5 kmh 29.91 in1012.9 mb 0.00 in0.0 mm 0.00 in0.0 mm 0.00 in0.0 mm
06:30 PM 65.4°F18.6°C 42.0°F5.6°C 42% 3.2 mph WNW5.1 kmh WNW 8.0 mph12.9 kmh 29.92 in1013.2 mb 0.00 in0.0 mm 0.00 in0.0 mm 0.00 in0.0 mm
06:40 PM 64.9°F18.3°C 42.0°F5.6°C 43% 3.2 mph NNW5.1 kmh NNW 8.0 mph12.9 kmh 29.92 in1013.2 mb 0.00 in0.0 mm 0.00 in0.0 mm 0.00 in0.0 mm
06:50 PM 64.5°F18.1°C 41.0°F5.0°C 42% 3.7 mph NNW6.0 kmh NNW 10.0 mph16.1 kmh 29.92 in1013.2 mb 0.00 in0.0 mm 0.00 in0.0 mm 0.00 in0.0 mm
07:00 PM 64.1°F17.8°C 40.0°F4.4°C 41% 2.9 mph WSW4.7 kmh WSW 7.0 mph11.3 kmh 29.92 in1013.2 mb 0.00 in0.0 mm 0.00 in0.0 mm 0.00 in0.0 mm
07:10 PM 63.8°F17.7°C 39.0°F3.9°C 41% 3.4 mph WNW5.5 kmh WNW 8.0 mph12.9 kmh 29.92 in1013.2 mb 0.00 in0.0 mm 0.00 in0.0 mm 0.00 in0.0 mm
07:20 PM 63.5°F17.5°C 39.0°F3.9°C 41% 3.3 mph W5.3 kmh W 7.0 mph11.3 kmh 29.93 in1013.5 mb 0.00 in0.0 mm 0.00 in0.0 mm 0.00 in0.0 mm
07:30 PM 63.2°F17.3°C 39.0°F3.9°C 41% 2.7 mph NW4.3 kmh NW 6.0 mph9.7 kmh 29.93 in1013.5 mb 0.00 in0.0 mm 0.00 in0.0 mm 0.00 in0.0 mm
07:40 PM 63.0°F17.2°C 39.0°F3.9°C 41% 2.3 mph WSW3.7 kmh WSW 6.0 mph9.7 kmh 29.93 in1013.5 mb 0.00 in0.0 mm 0.00 in0.0 mm 0.00 in0.0 mm
07:50 PM 62.8°F17.1°C 39.0°F3.9°C 41% 3.1 mph WNW5.0 kmh WNW 6.0 mph9.7 kmh 29.93 in1013.5 mb 0.00 in0.0 mm 0.00 in0.0 mm 0.00 in0.0 mm
08:00 PM 62.6°F17.0°C 38.0°F3.3°C 40% 1.8 mph NW2.9 kmh NW 4.0 mph6.4 kmh 29.93 in1013.5 mb 0.00 in0.0 mm 0.00 in0.0 mm 0.00 in0.0 mm
08:10 PM 62.4°F16.9°C 38.0°F3.3°C 40% 1.9 mph WNW3.1 kmh WNW 4.0 mph6.4 kmh 29.93 in1013.5 mb 0.00 in0.0 mm 0.00 in0.0 mm 0.00 in0.0 mm
08:20 PM 62.1°F16.7°C 37.0°F2.8°C 40% 1.6 mph WNW2.6 kmh WNW 4.0 mph6.4 kmh 29.93 in1013.5 mb 0.00 in0.0 mm 0.00 in0.0 mm 0.00 in0.0 mm
08:30 PM 61.9°F16.6°C 37.0°F2.8°C 40% 1.2 mph WNW1.9 kmh WNW 3.0 mph4.8 kmh 29.93 in1013.5 mb 0.00 in0.0 mm 0.00 in0.0 mm 0.00 in0.0 mm
08:40 PM 61.6°F16.4°C 37.0°F2.8°C 40% 1.2 mph WNW1.9 kmh WNW 3.0 mph4.8 kmh 29.93 in1013.5 mb 0.00 in0.0 mm 0.00 in0.0 mm 0.00 in0.0 mm
08:50 PM 61.1°F16.2°C 37.0°F2.8°C 41% 1.2 mph WNW1.9 kmh WNW 3.0 mph4.8 kmh 29.93 in1013.5 mb 0.00 in0.0 mm 0.00 in0.0 mm 0.00 in0.0 mm
09:00 PM 60.1°F15.6°C 37.0°F2.8°C 43% Calm Calm 1.0 mph1.6 kmh 29.93 in1013.5 mb 0.00 in0.0 mm 0.00 in0.0 mm 0.00 in0.0 mm
09:10 PM 60.0°F15.6°C 37.0°F2.8°C 43% 1.1 mph W1.8 kmh W 3.0 mph4.8 kmh 29.93 in1013.5 mb 0.00 in0.0 mm 0.00 in0.0 mm 0.00 in0.0 mm
09:20 PM 59.8°F15.4°C 38.0°F3.3°C 44% 1.0 mph W1.6 kmh W 2.0 mph3.2 kmh 29.93 in1013.5 mb 0.00 in0.0 mm 0.00 in0.0 mm 0.00 in0.0 mm
09:30 PM 59.7°F15.4°C 38.0°F3.3°C 44% 1.3 mph W2.1 kmh W 2.0 mph3.2 kmh 29.93 in1013.5 mb 0.00 in0.0 mm 0.00 in0.0 mm 0.00 in0.0 mm
09:40 PM 59.8°F15.4°C 38.0°F3.3°C 44% 1.4 mph WNW2.3 kmh WNW 3.0 mph4.8 kmh 29.93 in1013.5 mb 0.00 in0.0 mm 0.00 in0.0 mm 0.00 in0.0 mm
09:50 PM 59.9°F15.5°C 38.0°F3.3°C 44% 1.6 mph W2.6 kmh W 5.0 mph8.0 kmh 29.93 in1013.5 mb 0.00 in0.0 mm 0.00 in0.0 mm 0.00 in0.0 mm
10:00 PM 59.4°F15.2°C 37.0°F2.8°C 44% 1.4 mph W2.3 kmh W 3.0 mph4.8 kmh 29.93 in1013.5 mb 0.00 in0.0 mm 0.00 in0.0 mm 0.00 in0.0 mm
10:10 PM 58.9°F14.9°C 37.0°F2.8°C 45% 0.6 mph W1.0 kmh W 1.0 mph1.6 kmh 29.93 in1013.5 mb 0.00 in0.0 mm 0.00 in0.0 mm 0.00 in0.0 mm
10:20 PM 58.8°F14.9°C 38.0°F3.3°C 46% 0.5 mph W0.8 kmh W 2.0 mph3.2 kmh 29.93 in1013.5 mb 0.00 in0.0 mm 0.00 in0.0 mm 0.00 in0.0 mm
10:30 PM 58.5°F14.7°C 38.0°F3.3°C 46% 1.0 mph W1.6 kmh W 2.0 mph3.2 kmh 29.93 in1013.5 mb 0.00 in0.0 mm 0.00 in0.0 mm 0.00 in0.0 mm
10:40 PM 58.0°F14.4°C 38.0°F3.3°C 47% 0.4 mph W0.6 kmh W 1.0 mph1.6 kmh 29.93 in1013.5 mb 0.00 in0.0 mm 0.00 in0.0 mm 0.00 in0.0 mm
10:50 PM 57.5°F14.2°C 38.0°F3.3°C 48% Calm Calm -- 29.93 in1013.5 mb 0.00 in0.0 mm 0.00 in0.0 mm 0.00 in0.0 mm
11:00 PM 57.6°F14.2°C 38.0°F3.3°C 48% 0.2 mph W0.3 kmh W 1.0 mph1.6 kmh 29.94 in1013.9 mb 0.00 in0.0 mm 0.00 in0.0 mm 0.00 in0.0 mm
11:10 PM 57.9°F14.4°C 38.0°F3.3°C 47% 0.6 mph WNW1.0 kmh WNW 3.0 mph4.8 kmh 29.94 in1013.9 mb 0.00 in0.0 mm 0.00 in0.0 mm 0.00 in0.0 mm
11:20 PM 57.7°F14.3°C 38.0°F3.3°C 48% 0.5 mph WNW0.8 kmh WNW 2.0 mph3.2 kmh 29.94 in1013.9 mb 0.00 in0.0 mm 0.00 in0.0 mm 0.00 in0.0 mm
11:30 PM 57.1°F13.9°C 38.0°F3.3°C 50% 0.1 mph WNW0.2 kmh WNW 1.0 mph1.6 kmh 29.94 in1013.9 mb 0.00 in0.0 mm 0.00 in0.0 mm 0.00 in0.0 mm
11:40 PM 56.9°F13.8°C 38.0°F3.3°C 49% 0.4 mph WNW0.6 kmh WNW 2.0 mph3.2 kmh 29.94 in1013.9 mb 0.00 in0.0 mm 0.00 in0.0 mm 0.00 in0.0 mm
11:50 PM 56.6°F13.7°C 38.0°F3.3°C 50% 0.1 mph WNW0.2 kmh WNW 1.0 mph1.6 kmh 29.94 in1013.9 mb 0.00 in0.0 mm 0.00 in0.0 mm 0.00 in0.0 mm